createdAt,value
2023-03-20T00:02:01.995Z,75.11
2023-03-20T00:04:30.413Z,74.95
2023-03-20T00:06:58.144Z,75.04
2023-03-20T00:09:26.673Z,74.63
2023-03-20T00:11:56.522Z,75.36
2023-03-20T00:14:25.273Z,75.30
2023-03-20T00:16:53.457Z,75.45
2023-03-20T00:19:23.253Z,75.98
2023-03-20T00:21:51.670Z,76.01
2023-03-20T00:24:19.723Z,75.76
2023-03-20T00:26:48.394Z,75.60
2023-03-20T00:29:23.478Z,75.71
2023-03-20T00:31:51.672Z,75.56
2023-03-20T00:34:22.210Z,76.40
2023-03-20T00:36:50.195Z,76.78
2023-03-20T00:39:17.863Z,76.93
2023-03-20T00:41:50.702Z,76.46
2023-03-20T00:44:24.996Z,76.27
2023-03-20T00:46:55.541Z,76.53
2023-03-20T00:49:26.371Z,75.75
2023-03-20T00:51:54.040Z,75.62
2023-03-20T00:54:21.782Z,75.62
2023-03-20T00:56:56.709Z,75.86
2023-03-20T00:59:28.597Z,75.58
2023-03-20T01:01:56.474Z,75.39
2023-03-20T01:04:24.228Z,75.28
2023-03-20T01:06:52.606Z,75.09
2023-03-20T01:09:20.276Z,75.28
2023-03-20T01:11:48.036Z,75.25
2023-03-20T01:14:17.984Z,75.38
2023-03-20T01:16:47.179Z,75.73
2023-03-20T01:19:16.599Z,75.24
2023-03-20T01:21:44.495Z,75.15
2023-03-20T01:24:12.486Z,75.08
2023-03-20T01:26:42.354Z,75.42
2023-03-20T01:29:19.655Z,75.74
2023-03-20T01:31:49.115Z,75.53
2023-03-20T01:34:17.434Z,75.61
2023-03-20T01:36:49.722Z,75.79
2023-03-20T01:39:19.058Z,76.31
2023-03-20T01:41:48.039Z,76.21
2023-03-20T01:44:22.184Z,75.81
2023-03-20T01:46:53.674Z,76.10
2023-03-20T01:49:58.764Z,76.00
2023-03-20T01:52:26.499Z,75.97
2023-03-20T01:54:54.275Z,76.09
2023-03-20T01:57:26.109Z,76.52
2023-03-20T01:59:59.067Z,76.43
2023-03-20T02:02:31.760Z,76.31
2023-03-20T02:05:03.023Z,76.09
2023-03-20T02:07:33.674Z,75.87
2023-03-20T02:10:03.357Z,76.05
2023-03-20T02:12:31.644Z,76.11
2023-03-20T02:14:59.706Z,75.94
2023-03-20T02:17:28.938Z,75.55
2023-03-20T02:20:05.479Z,75.66
2023-03-20T02:23:09.084Z,75.76
2023-03-20T02:26:15.562Z,75.56
2023-03-20T02:29:40.181Z,75.81
2023-03-20T02:32:41.178Z,75.95
2023-03-20T02:35:37.907Z,76.00
2023-03-20T02:38:32.727Z,75.71
2023-03-20T02:41:09.245Z,75.79
2023-03-20T02:43:44.210Z,75.83
2023-03-20T02:46:19.091Z,75.86
2023-03-20T02:48:55.610Z,76.17
2023-03-20T02:51:31.817Z,75.85
2023-03-20T02:54:09.533Z,75.63
2023-03-20T02:56:48.212Z,75.46
2023-03-20T02:59:27.661Z,75.48
2023-03-20T03:02:00.578Z,75.14
2023-03-20T03:04:31.513Z,75.50
2023-03-20T03:06:59.864Z,75.17
2023-03-20T03:09:32.377Z,75.31
2023-03-20T03:12:02.459Z,75.14
2023-03-20T03:14:36.580Z,75.17
2023-03-20T03:17:06.977Z,75.19
2023-03-20T03:19:37.802Z,74.94
2023-03-20T03:22:06.700Z,74.87
2023-03-20T03:24:41.306Z,74.50
2023-03-20T03:27:18.582Z,74.67
2023-03-20T03:29:51.130Z,74.53
2023-03-20T03:32:26.292Z,74.63
2023-03-20T03:34:54.781Z,74.85
2023-03-20T03:37:30.590Z,74.70
2023-03-20T03:40:11.780Z,75.02
2023-03-20T03:42:44.944Z,76.02
2023-03-20T03:45:17.292Z,76.26
2023-03-20T03:47:49.171Z,76.27
2023-03-20T03:50:21.378Z,76.26
2023-03-20T03:52:52.544Z,76.77
2023-03-20T03:55:26.028Z,76.54
2023-03-20T03:57:58.933Z,76.85
2023-03-20T04:00:28.588Z,76.55
2023-03-20T04:02:59.004Z,77.04
2023-03-20T04:05:31.911Z,76.66
2023-03-20T04:08:04.287Z,77.27
2023-03-20T04:10:33.396Z,76.86
2023-03-20T04:13:01.477Z,76.86
2023-03-20T04:15:29.224Z,77.03
2023-03-20T04:17:57.032Z,76.54
2023-03-20T04:20:24.752Z,77.58
2023-03-20T04:22:52.448Z,76.71
2023-03-20T04:25:23.033Z,76.86
2023-03-20T04:27:52.158Z,77.05
2023-03-20T04:30:20.165Z,76.97
2023-03-20T04:32:47.831Z,76.71
2023-03-20T04:35:15.642Z,77.17
2023-03-20T04:37:43.311Z,76.39
2023-03-20T04:40:12.219Z,77.04
2023-03-20T04:42:40.145Z,77.23
2023-03-20T04:45:10.834Z,76.97
2023-03-20T04:47:38.612Z,77.57
2023-03-20T04:50:07.393Z,77.29
2023-03-20T04:52:35.313Z,77.31
2023-03-20T04:55:03.027Z,77.63
2023-03-20T04:57:31.969Z,77.42
2023-03-20T04:59:59.706Z,77.61
2023-03-20T05:02:28.797Z,77.64
2023-03-20T05:04:56.473Z,78.24
2023-03-20T05:07:24.201Z,78.26
2023-03-20T05:09:52.065Z,78.94
2023-03-20T05:12:19.845Z,78.94
2023-03-20T05:14:47.540Z,78.91
2023-03-20T05:17:15.321Z,78.80
2023-03-20T05:19:44.579Z,78.83
2023-03-20T05:22:12.436Z,78.90
2023-03-20T05:24:40.312Z,78.69
2023-03-20T05:27:08.202Z,78.77
2023-03-20T05:29:36.340Z,78.78
2023-03-20T05:32:04.354Z,78.64
2023-03-20T05:34:32.040Z,79.02
2023-03-20T05:37:01.614Z,78.99
2023-03-20T05:39:29.344Z,78.46
2023-03-20T05:41:57.298Z,78.41
2023-03-20T05:44:25.028Z,78.89
2023-03-20T05:46:52.734Z,78.01
2023-03-20T05:49:20.770Z,78.29
2023-03-20T05:51:48.561Z,78.59
2023-03-20T05:54:17.772Z,78.52
2023-03-20T05:56:45.537Z,78.39
2023-03-20T05:59:13.447Z,78.61
2023-03-20T06:01:41.171Z,78.27
2023-03-20T06:04:08.965Z,78.36
2023-03-20T06:06:37.906Z,78.23
2023-03-20T06:09:06.276Z,77.69
2023-03-20T06:11:37.473Z,77.38
2023-03-20T06:14:05.483Z,77.22
2023-03-20T06:16:33.351Z,76.72
2023-03-20T06:19:01.096Z,76.49
2023-03-20T06:21:28.855Z,76.69
2023-03-20T06:23:58.083Z,76.24
2023-03-20T06:26:26.218Z,76.77
2023-03-20T06:28:55.424Z,76.22
2023-03-20T06:31:23.330Z,76.17
2023-03-20T06:33:51.123Z,76.46
2023-03-20T06:36:18.883Z,76.26
2023-03-20T06:38:46.800Z,75.98
2023-03-20T06:41:27.717Z,76.62
2023-03-20T06:44:01.018Z,76.15
2023-03-20T06:46:28.764Z,75.71
2023-03-20T06:48:56.697Z,75.66
2023-03-20T06:51:24.471Z,75.19
2023-03-20T06:53:52.185Z,75.57
2023-03-20T06:56:20.000Z,75.34
2023-03-20T06:58:47.645Z,75.22
2023-03-20T07:01:19.850Z,75.40
2023-03-20T07:03:48.051Z,75.00
2023-03-20T07:06:15.810Z,74.80
2023-03-20T07:08:43.560Z,74.88
2023-03-20T07:11:11.542Z,74.73
2023-03-20T07:13:39.369Z,75.05
2023-03-20T07:16:09.240Z,74.88
2023-03-20T07:18:38.639Z,74.72
2023-03-20T07:21:08.025Z,74.60
2023-03-20T07:23:36.373Z,74.71
2023-03-20T07:26:05.452Z,73.70
2023-03-20T07:28:33.273Z,73.69
2023-03-20T07:31:01.118Z,73.46
2023-03-20T07:33:28.967Z,73.89
2023-03-20T07:35:58.341Z,73.71
2023-03-20T07:38:26.125Z,73.79
2023-03-20T07:40:55.314Z,73.00
2023-03-20T07:43:23.130Z,72.37
2023-03-20T07:45:51.626Z,72.28
2023-03-20T07:48:21.653Z,72.22
2023-03-20T07:50:49.677Z,72.15
2023-03-20T07:53:18.809Z,72.40
2023-03-20T07:55:46.593Z,71.68
2023-03-20T07:58:14.437Z,71.36
2023-03-20T08:00:42.420Z,70.98
2023-03-20T08:03:10.360Z,70.89
2023-03-20T08:05:38.782Z,70.20
2023-03-20T08:08:07.035Z,69.87
2023-03-20T08:10:36.408Z,69.42
2023-03-20T08:13:04.458Z,70.01
2023-03-20T08:15:32.564Z,69.20
2023-03-20T08:18:00.715Z,69.26
2023-03-20T08:20:28.549Z,69.01
2023-03-20T08:22:56.296Z,68.09
2023-03-20T08:25:24.275Z,67.29
2023-03-20T08:27:55.667Z,68.30
2023-03-20T08:30:23.587Z,67.23
2023-03-20T08:32:51.412Z,66.55
2023-03-20T08:35:32.126Z,66.02
2023-03-20T08:38:01.033Z,65.73
2023-03-20T08:40:29.083Z,65.94
2023-03-20T08:42:58.494Z,65.52
2023-03-20T08:45:26.557Z,64.86
2023-03-20T08:47:54.964Z,62.93
2023-03-20T08:50:22.749Z,63.52
2023-03-20T08:52:50.854Z,63.65
2023-03-20T08:55:19.956Z,63.53
2023-03-20T08:57:48.048Z,62.62
2023-03-20T09:00:20.359Z,62.10
2023-03-20T09:02:48.129Z,62.50
2023-03-20T09:05:16.128Z,62.62
2023-03-20T09:07:44.355Z,62.63
2023-03-20T09:10:13.848Z,62.87
2023-03-20T09:12:42.048Z,62.46
2023-03-20T09:15:10.698Z,63.04
2023-03-20T09:17:40.043Z,62.24
2023-03-20T09:20:09.146Z,61.58
2023-03-20T09:22:37.112Z,61.81
2023-03-20T09:25:05.319Z,61.95
2023-03-20T09:27:36.092Z,61.73
2023-03-20T09:30:03.959Z,62.19
2023-03-20T09:32:31.781Z,61.72
2023-03-20T09:35:00.975Z,61.78
2023-03-20T09:37:29.049Z,61.76
2023-03-20T09:39:57.065Z,61.39
2023-03-20T09:42:39.419Z,61.57
2023-03-20T09:45:15.710Z,60.75
2023-03-20T09:47:51.805Z,60.39
2023-03-20T09:50:30.111Z,60.51
2023-03-20T09:53:06.996Z,60.58
2023-03-20T09:55:37.150Z,60.34
2023-03-20T09:58:11.660Z,60.24
2023-03-20T10:00:42.251Z,60.95
2023-03-20T10:03:19.482Z,59.79
2023-03-20T10:05:55.657Z,59.23
2023-03-20T10:08:29.268Z,59.44
2023-03-20T10:11:08.469Z,59.49
2023-03-20T10:13:48.655Z,59.20
2023-03-20T10:16:25.141Z,57.92
2023-03-20T10:19:01.472Z,57.86
2023-03-20T10:21:38.420Z,57.28
2023-03-20T10:24:11.258Z,57.31
2023-03-20T10:26:40.824Z,57.48
2023-03-20T10:29:21.226Z,57.63
2023-03-20T10:31:59.036Z,57.41
2023-03-20T10:34:58.835Z,57.23
2023-03-20T10:37:43.812Z,57.70
2023-03-20T10:40:26.830Z,57.30
2023-03-20T10:42:58.712Z,56.69
2023-03-20T10:45:37.672Z,57.08
2023-03-20T10:48:13.581Z,57.09
2023-03-20T10:50:44.982Z,57.73
2023-03-20T10:53:25.295Z,57.74
2023-03-20T10:55:58.501Z,57.77
2023-03-20T10:58:29.446Z,58.10
2023-03-20T11:00:59.441Z,58.62
2023-03-20T11:03:29.176Z,59.83
2023-03-20T11:06:09.597Z,59.81
2023-03-20T11:08:42.241Z,59.85
2023-03-20T11:11:10.480Z,60.07
2023-03-20T11:13:41.492Z,60.37
2023-03-20T11:16:22.013Z,61.14
2023-03-20T11:18:52.246Z,60.19
2023-03-20T11:21:23.762Z,59.66
2023-03-20T11:23:54.528Z,58.93
2023-03-20T11:26:35.901Z,58.43
2023-03-20T11:29:07.881Z,56.91
2023-03-20T11:31:38.092Z,56.12
2023-03-20T11:34:26.738Z,57.67
2023-03-20T11:37:09.755Z,58.35
2023-03-20T11:39:55.397Z,57.21
2023-03-20T11:42:24.053Z,57.52
2023-03-20T11:44:59.845Z,57.38
2023-03-20T11:47:30.406Z,57.99
2023-03-20T11:50:01.023Z,58.69
2023-03-20T11:52:32.825Z,59.48
2023-03-20T11:55:02.197Z,59.50
2023-03-20T11:57:36.430Z,59.61
2023-03-20T12:00:08.774Z,59.48
2023-03-20T12:02:38.339Z,59.97
2023-03-20T12:05:21.200Z,60.62
2023-03-20T12:07:52.137Z,61.34
2023-03-20T12:10:21.842Z,60.63
2023-03-20T12:12:56.760Z,60.99
2023-03-20T12:15:28.625Z,61.65
2023-03-20T12:17:58.532Z,62.42
2023-03-20T12:20:33.489Z,61.85
2023-03-20T12:23:12.062Z,62.09
2023-03-20T12:25:46.047Z,61.59
2023-03-20T12:28:22.507Z,61.24
2023-03-20T12:30:59.217Z,61.02
2023-03-20T12:33:38.395Z,60.52
2023-03-20T12:36:14.083Z,60.53
2023-03-20T12:38:43.350Z,60.39
2023-03-20T12:41:15.316Z,60.48
2023-03-20T12:44:03.028Z,61.56
2023-03-20T12:46:38.441Z,61.37
2023-03-20T12:49:19.948Z,61.34
2023-03-20T12:51:59.010Z,61.83
2023-03-20T12:54:43.595Z,62.14
2023-03-20T12:57:25.348Z,62.41
2023-03-20T13:00:10.395Z,61.50
2023-03-20T13:02:52.022Z,61.50
2023-03-20T13:05:32.356Z,61.82
2023-03-20T13:08:16.051Z,61.57
2023-03-20T13:10:50.923Z,61.69
2023-03-20T13:13:30.471Z,61.58
2023-03-20T13:16:11.061Z,61.64
2023-03-20T13:18:50.149Z,62.01
2023-03-20T13:21:24.747Z,61.72
2023-03-20T13:24:00.699Z,61.63
2023-03-20T13:26:36.645Z,61.34
2023-03-20T13:29:12.910Z,61.51
2023-03-20T13:32:04.428Z,61.27
2023-03-20T13:34:47.808Z,61.39
2023-03-20T13:37:24.410Z,60.88
2023-03-20T13:40:04.452Z,61.22
2023-03-20T13:42:36.853Z,61.16
2023-03-20T13:45:07.167Z,61.14
2023-03-20T13:47:38.563Z,61.02
2023-03-20T13:50:25.132Z,62.31
2023-03-20T13:53:02.796Z,62.62
2023-03-20T13:55:37.012Z,62.47
2023-03-20T13:58:17.748Z,63.40
2023-03-20T14:00:51.177Z,63.38
2023-03-20T14:03:28.432Z,63.05
2023-03-20T14:05:57.222Z,62.65
2023-03-20T14:08:33.451Z,62.23
2023-03-20T14:11:32.385Z,61.88
2023-03-20T14:14:06.942Z,62.34
2023-03-20T14:16:34.944Z,61.27
2023-03-20T14:19:12.906Z,61.48
2023-03-20T14:21:45.945Z,61.09
2023-03-20T14:24:16.298Z,61.05
2023-03-20T14:26:48.040Z,61.30
2023-03-20T14:29:38.115Z,62.11
2023-03-20T14:32:22.123Z,62.43
2023-03-20T14:34:53.053Z,63.25
2023-03-20T14:37:38.585Z,62.86
2023-03-20T14:40:16.798Z,62.88
2023-03-20T14:42:52.408Z,63.11
2023-03-20T14:45:42.168Z,62.55
2023-03-20T14:48:20.489Z,62.19
2023-03-20T14:51:05.433Z,63.50
2023-03-20T14:53:34.115Z,62.42
2023-03-20T14:56:12.665Z,62.23
2023-03-20T14:58:54.344Z,62.81
2023-03-20T15:01:28.289Z,63.40
2023-03-20T15:04:00.965Z,63.68
2023-03-20T15:06:30.644Z,64.63
2023-03-20T15:09:01.335Z,65.13
2023-03-20T15:11:29.350Z,65.95
2023-03-20T15:13:59.297Z,66.29
2023-03-20T15:16:29.329Z,66.69
2023-03-20T15:18:57.443Z,65.87
2023-03-20T15:21:34.522Z,66.21
2023-03-20T15:24:02.583Z,67.25
2023-03-20T15:26:32.670Z,67.71
2023-03-20T15:29:03.666Z,68.04
2023-03-20T15:31:34.683Z,67.27
2023-03-20T15:34:05.186Z,66.74
2023-03-20T15:36:37.212Z,67.40
2023-03-20T15:39:12.288Z,67.38
2023-03-20T15:41:40.129Z,67.57
2023-03-20T15:44:19.508Z,67.74
2023-03-20T15:46:55.669Z,67.82
2023-03-20T15:49:24.954Z,68.20
2023-03-20T15:51:58.163Z,68.84
2023-03-20T15:54:26.351Z,68.04
2023-03-20T15:56:58.042Z,68.10
2023-03-20T15:59:28.537Z,68.84
2023-03-20T16:01:59.588Z,68.82
2023-03-20T16:04:28.362Z,69.32
2023-03-20T16:06:59.479Z,69.54
2023-03-20T16:09:28.648Z,69.79
2023-03-20T16:11:59.166Z,69.80
2023-03-20T16:14:29.951Z,70.88
2023-03-20T16:17:00.820Z,70.84
2023-03-20T16:19:30.756Z,70.78
2023-03-20T16:22:02.732Z,71.89
2023-03-20T16:24:36.456Z,71.78
2023-03-20T16:27:08.358Z,72.00
2023-03-20T16:29:37.451Z,71.77
2023-03-20T16:32:08.374Z,72.05
2023-03-20T16:34:39.600Z,72.67
2023-03-20T16:37:22.931Z,72.76
2023-03-20T16:40:03.365Z,73.24
2023-03-20T16:42:31.245Z,73.34
2023-03-20T16:44:59.890Z,73.44
2023-03-20T16:47:36.058Z,73.62
2023-03-20T16:50:11.111Z,73.23
2023-03-20T16:52:42.398Z,73.48
2023-03-20T16:55:17.172Z,72.35
2023-03-20T16:57:48.551Z,72.77
2023-03-20T17:00:29.567Z,72.44
2023-03-20T17:03:06.821Z,73.33
2023-03-20T17:05:49.050Z,72.92
2023-03-20T17:08:26.532Z,72.87
2023-03-20T17:11:00.992Z,73.01
2023-03-20T17:13:29.042Z,73.11
2023-03-20T17:15:57.065Z,72.77
2023-03-20T17:18:24.965Z,72.38
2023-03-20T17:20:52.733Z,72.02
2023-03-20T17:23:23.468Z,71.85
2023-03-20T17:25:52.126Z,71.99
2023-03-20T17:28:22.140Z,71.23
2023-03-20T17:30:51.652Z,71.14
2023-03-20T17:33:23.173Z,70.94
2023-03-20T17:35:51.784Z,70.21
2023-03-20T17:38:23.259Z,70.30
2023-03-20T17:40:55.210Z,70.20
2023-03-20T17:43:23.600Z,70.90
2023-03-20T17:45:51.385Z,70.73
2023-03-20T17:48:21.835Z,70.84
2023-03-20T17:50:51.511Z,70.43
2023-03-20T17:53:21.081Z,69.98
2023-03-20T17:55:50.327Z,70.05
2023-03-20T17:58:21.152Z,70.15
2023-03-20T18:00:49.584Z,70.12
2023-03-20T18:03:18.145Z,69.76
2023-03-20T18:05:46.238Z,69.86
2023-03-20T18:08:15.628Z,69.90
2023-03-20T18:10:44.598Z,70.15
2023-03-20T18:13:14.488Z,70.68
2023-03-20T18:15:42.283Z,70.89
2023-03-20T18:18:10.336Z,71.22
2023-03-20T18:20:41.020Z,70.81
2023-03-20T18:23:09.633Z,71.47
2023-03-20T18:25:37.604Z,71.45
2023-03-20T18:28:07.954Z,71.54
2023-03-20T18:30:39.349Z,71.70
2023-03-20T18:33:07.375Z,71.99
2023-03-20T18:35:36.059Z,71.98
2023-03-20T18:38:05.218Z,71.52
2023-03-20T18:40:35.257Z,71.77
2023-03-20T18:43:03.651Z,71.89
2023-03-20T18:45:32.398Z,71.73
2023-03-20T18:48:03.819Z,71.99
2023-03-20T18:50:37.635Z,71.36
2023-03-20T18:53:07.086Z,71.24
2023-03-20T18:55:35.512Z,71.32
2023-03-20T18:58:04.283Z,70.98
2023-03-20T19:00:37.900Z,71.09
2023-03-20T19:03:09.132Z,71.54
2023-03-20T19:05:37.465Z,71.18
2023-03-20T19:08:05.835Z,70.51
2023-03-20T19:10:36.914Z,70.66
2023-03-20T19:13:06.343Z,70.70
2023-03-20T19:15:36.816Z,70.40
2023-03-20T19:18:05.836Z,70.73
2023-03-20T19:20:37.728Z,70.51
2023-03-20T19:23:07.416Z,70.57
2023-03-20T19:25:36.510Z,70.77
2023-03-20T19:28:05.538Z,71.06
2023-03-20T19:30:36.061Z,71.51
2023-03-20T19:33:06.314Z,71.28
2023-03-20T19:36:01.685Z,71.14
2023-03-20T19:38:25.298Z,71.27
2023-03-20T19:40:54.221Z,71.49
2023-03-20T19:43:22.888Z,71.44
2023-03-20T19:45:57.931Z,71.16
2023-03-20T19:48:27.635Z,71.08
2023-03-20T19:51:00.047Z,71.19
2023-03-20T19:53:29.305Z,71.53
2023-03-20T19:55:58.479Z,72.07
2023-03-20T19:58:26.261Z,71.79
2023-03-20T20:00:59.259Z,71.71
2023-03-20T20:03:28.491Z,71.87
2023-03-20T20:05:59.291Z,72.79
2023-03-20T20:08:43.511Z,72.45
2023-03-20T20:11:15.480Z,72.45
2023-03-20T20:14:04.090Z,72.85
2023-03-20T20:16:31.728Z,72.18
2023-03-20T20:18:59.544Z,72.11
2023-03-20T20:24:17.127Z,72.07
2023-03-20T20:26:54.410Z,71.97
2023-03-20T20:29:24.470Z,71.96
2023-03-20T20:31:52.493Z,71.75
2023-03-20T20:39:57.948Z,71.53
2023-03-20T20:42:26.353Z,71.19
2023-03-20T20:44:54.127Z,71.34
2023-03-20T20:47:22.061Z,70.67
2023-03-20T20:49:49.949Z,71.11
2023-03-20T20:52:19.088Z,71.03
2023-03-20T20:54:46.771Z,70.75
2023-03-20T20:57:15.139Z,70.74
2023-03-20T20:59:42.940Z,71.16
2023-03-20T21:02:12.181Z,70.68
2023-03-20T21:04:40.694Z,70.28
2023-03-20T21:07:10.949Z,70.57
2023-03-20T21:09:40.652Z,70.68
2023-03-20T21:12:10.586Z,70.86
2023-03-20T21:14:38.646Z,70.68
2023-03-20T21:17:07.849Z,70.72
2023-03-20T21:19:38.122Z,70.65
2023-03-20T21:22:07.337Z,70.66
2023-03-20T21:24:36.658Z,70.74
2023-03-20T21:27:08.004Z,70.83
2023-03-20T21:29:35.835Z,70.88
2023-03-20T21:32:03.773Z,71.43
2023-03-20T21:34:31.925Z,71.67
2023-03-20T21:37:15.257Z,71.67
2023-03-20T21:39:51.949Z,71.42
2023-03-20T21:42:21.356Z,71.68
2023-03-20T21:46:06.707Z,72.24
2023-03-20T21:50:55.517Z,72.86
2023-03-20T21:54:07.601Z,73.33
2023-03-20T22:05:18.817Z,74.03
2023-03-20T22:07:45.004Z,74.51
2023-03-20T22:19:14.693Z,75.19
2023-03-20T22:27:39.464Z,75.40
2023-03-20T22:30:15.188Z,74.83
2023-03-20T22:38:52.261Z,74.59
2023-03-20T22:41:55.027Z,74.61
2023-03-20T22:44:33.974Z,74.91
2023-03-20T22:46:44.759Z,75.07
2023-03-20T22:49:15.171Z,75.14
2023-03-20T22:51:57.547Z,75.52
2023-03-20T22:54:30.794Z,75.23
2023-03-20T22:56:58.540Z,75.51
2023-03-20T22:59:26.393Z,75.29
2023-03-20T23:01:54.172Z,75.21
2023-03-20T23:04:23.336Z,75.73
2023-03-20T23:06:51.181Z,75.27
2023-03-20T23:09:18.907Z,75.36
2023-03-20T23:11:47.729Z,75.20
2023-03-20T23:14:21.360Z,75.23
2023-03-20T23:16:49.881Z,75.35
2023-03-20T23:19:17.764Z,75.40
2023-03-20T23:21:46.918Z,75.82
2023-03-20T23:24:14.696Z,76.08
2023-03-20T23:26:42.467Z,76.84
2023-03-20T23:29:10.294Z,77.11
2023-03-20T23:31:38.142Z,76.62
2023-03-20T23:34:05.905Z,76.91
2023-03-20T23:36:36.876Z,76.77
2023-03-20T23:39:07.241Z,76.72
2023-03-20T23:44:23.800Z,76.55
2023-03-20T23:46:51.600Z,76.45
2023-03-20T23:49:19.411Z,76.63
2023-03-20T23:51:47.164Z,76.18
2023-03-20T23:54:16.411Z,76.05
2023-03-20T23:56:44.354Z,75.93
